createdAt,value
2023-01-11T00:02:02.156Z,-3.28
2023-01-11T00:04:30.760Z,-3.34
2023-01-11T00:06:58.253Z,-3.38
2023-01-11T00:09:25.160Z,-3.45
2023-01-11T00:11:52.012Z,-3.46
2023-01-11T00:14:18.887Z,-3.47
2023-01-11T00:16:45.722Z,-3.41
2023-01-11T00:19:12.721Z,-3.48
2023-01-11T00:21:40.873Z,-3.43
2023-01-11T00:24:07.834Z,-3.37
2023-01-11T00:26:34.746Z,-3.37
2023-01-11T00:29:01.522Z,-3.33
2023-01-11T00:31:28.341Z,-3.31
2023-01-11T00:33:55.213Z,-3.30
2023-01-11T00:36:22.000Z,-3.59
2023-01-11T00:38:50.185Z,-3.61
2023-01-11T00:41:18.279Z,-3.68
2023-01-11T00:43:45.185Z,-3.53
2023-01-11T00:46:12.007Z,-3.48
2023-01-11T00:48:38.889Z,-3.80
2023-01-11T00:51:05.814Z,-3.86
2023-01-11T00:53:32.594Z,-3.74
2023-01-11T00:56:00.819Z,-3.74
2023-01-11T00:58:27.635Z,-3.70
2023-01-11T01:00:54.390Z,-3.67
2023-01-11T01:03:21.155Z,-3.71
2023-01-11T01:05:48.032Z,-3.79
2023-01-11T01:08:14.783Z,-3.77
2023-01-11T01:10:41.582Z,-3.74
2023-01-11T01:13:11.533Z,-3.79
2023-01-11T01:15:38.417Z,-3.78
2023-01-11T01:18:05.390Z,-3.84
2023-01-11T01:20:32.256Z,-3.87
2023-01-11T01:22:59.070Z,-3.86
2023-01-11T01:25:25.897Z,-3.77
2023-01-11T01:27:52.824Z,-3.70
2023-01-11T01:30:21.000Z,-3.66
2023-01-11T01:32:47.850Z,-3.84
2023-01-11T01:35:14.686Z,-3.87
2023-01-11T01:37:43.420Z,-3.84
2023-01-11T01:40:11.519Z,-3.83
2023-01-11T01:42:38.339Z,-3.81
2023-01-11T01:45:16.496Z,-4.03
2023-01-11T01:47:47.293Z,-3.79
2023-01-11T01:50:19.516Z,-3.92
2023-01-11T01:52:50.609Z,-3.97
2023-01-11T01:55:25.243Z,-4.13
2023-01-11T01:57:53.299Z,-4.11
2023-01-11T02:00:20.816Z,-4.06
2023-01-11T02:02:49.565Z,-3.86
2023-01-11T02:05:18.573Z,-3.83
2023-01-11T02:07:46.495Z,-3.80
2023-01-11T02:10:15.691Z,-3.83
2023-01-11T02:12:47.856Z,-3.73
2023-01-11T02:15:16.222Z,-3.68
2023-01-11T02:17:43.087Z,-3.65
2023-01-11T02:20:34.917Z,-3.58
2023-01-11T02:23:27.670Z,-3.50
2023-01-11T02:26:19.150Z,-3.53
2023-01-11T02:28:54.030Z,-3.44
2023-01-11T02:31:31.416Z,-3.37
2023-01-11T02:34:10.472Z,-3.53
2023-01-11T02:36:50.942Z,-3.42
2023-01-11T02:39:25.231Z,-3.42
2023-01-11T02:41:58.789Z,-3.52
2023-01-11T02:44:36.069Z,-3.52
2023-01-11T02:47:06.905Z,-3.28
2023-01-11T02:49:39.620Z,-3.15
2023-01-11T02:52:12.738Z,-3.09
2023-01-11T02:54:43.591Z,-3.16
2023-01-11T02:57:12.033Z,-3.20
2023-01-11T02:59:41.478Z,-3.24
2023-01-11T03:02:08.379Z,-3.12
2023-01-11T03:04:37.288Z,-3.02
2023-01-11T03:07:18.134Z,-3.18
2023-01-11T03:09:56.403Z,-2.99
2023-01-11T03:12:36.167Z,-3.05
2023-01-11T03:15:18.867Z,-3.02
2023-01-11T03:17:54.614Z,-3.15
2023-01-11T03:20:27.051Z,-3.24
2023-01-11T03:23:09.962Z,-3.28
2023-01-11T03:25:47.457Z,-3.05
2023-01-11T03:28:24.411Z,-3.20
2023-01-11T03:30:59.704Z,-3.30
2023-01-11T03:33:33.531Z,-3.29
2023-01-11T03:36:08.376Z,-3.31
2023-01-11T03:38:38.408Z,-3.30
2023-01-11T03:41:10.563Z,-3.32
2023-01-11T03:43:41.177Z,-3.27
2023-01-11T03:46:13.005Z,-2.97
2023-01-11T03:48:46.521Z,-2.85
2023-01-11T03:51:19.426Z,-2.94
2023-01-11T03:53:49.538Z,-2.92
2023-01-11T03:56:20.906Z,-2.87
2023-01-11T03:58:47.823Z,-2.95
2023-01-11T04:01:16.561Z,-2.95
2023-01-11T04:03:43.424Z,-2.97
2023-01-11T04:06:11.758Z,-2.92
2023-01-11T04:08:38.508Z,-2.91
2023-01-11T04:11:05.943Z,-2.93
2023-01-11T04:13:32.818Z,-2.94
2023-01-11T04:15:59.730Z,-2.96
2023-01-11T04:18:28.051Z,-2.98
2023-01-11T04:20:55.017Z,-2.71
2023-01-11T04:23:21.830Z,-2.73
2023-01-11T04:25:48.725Z,-2.84
2023-01-11T04:28:15.468Z,-2.96
2023-01-11T04:30:42.307Z,-2.96
2023-01-11T04:33:09.069Z,-2.93
2023-01-11T04:35:37.323Z,-2.99
2023-01-11T04:38:04.200Z,-3.12
2023-01-11T04:40:31.089Z,-3.03
2023-01-11T04:42:57.915Z,-2.93
2023-01-11T04:45:24.743Z,-2.77
2023-01-11T04:47:54.166Z,-2.71
2023-01-11T04:50:20.962Z,-2.73
2023-01-11T04:52:49.200Z,-2.77
2023-01-11T04:55:16.178Z,-2.84
2023-01-11T04:57:43.696Z,-2.84
2023-01-11T05:00:11.667Z,-2.86
2023-01-11T05:02:38.805Z,-2.87
2023-01-11T05:05:07.270Z,-2.91
2023-01-11T05:07:34.119Z,-2.80
2023-01-11T05:10:02.377Z,-2.85
2023-01-11T05:12:51.673Z,-2.80
2023-01-11T05:15:18.840Z,-2.92
2023-01-11T05:17:48.993Z,-2.93
2023-01-11T05:20:16.995Z,-2.96
2023-01-11T05:22:44.200Z,-2.94
2023-01-11T05:25:12.713Z,-2.77
2023-01-11T05:27:39.902Z,-2.76
2023-01-11T05:30:09.149Z,-2.73
2023-01-11T05:32:36.245Z,-2.76
2023-01-11T05:35:03.871Z,-2.86
2023-01-11T05:37:31.328Z,-2.87
2023-01-11T05:40:00.969Z,-2.86
2023-01-11T05:42:29.657Z,-2.97
2023-01-11T05:44:58.250Z,-2.91
2023-01-11T05:47:25.622Z,-2.75
2023-01-11T05:49:53.452Z,-2.56
2023-01-11T05:52:21.323Z,-2.60
2023-01-11T05:54:48.913Z,-2.60
2023-01-11T05:57:16.590Z,-2.46
2023-01-11T05:59:45.718Z,-2.38
2023-01-11T06:02:13.107Z,-2.34
2023-01-11T06:04:40.821Z,-2.45
2023-01-11T06:07:08.603Z,-2.50
2023-01-11T06:09:35.872Z,-2.52
2023-01-11T06:12:03.679Z,-2.54
2023-01-11T06:14:31.353Z,-2.55
2023-01-11T06:17:01.803Z,-2.53
2023-01-11T06:19:29.212Z,-2.52
2023-01-11T06:21:56.508Z,-2.46
2023-01-11T06:24:24.101Z,-2.43
2023-01-11T06:26:55.852Z,-2.44
2023-01-11T06:29:25.739Z,-2.39
2023-01-11T06:31:53.379Z,-2.34
2023-01-11T06:34:22.408Z,-2.41
2023-01-11T06:36:50.008Z,-2.34
2023-01-11T06:39:17.438Z,-2.36
2023-01-11T06:41:45.084Z,-2.42
2023-01-11T06:44:12.614Z,-2.43
2023-01-11T06:46:42.770Z,-2.51
2023-01-11T06:49:11.159Z,-2.21
2023-01-11T06:51:43.462Z,-2.20
2023-01-11T06:54:10.822Z,-2.30
2023-01-11T06:56:38.380Z,-2.14
2023-01-11T06:59:08.655Z,-2.21
2023-01-11T07:01:36.497Z,-2.11
2023-01-11T07:04:04.288Z,-2.09
2023-01-11T07:06:34.987Z,-2.02
2023-01-11T07:09:04.245Z,-1.98
2023-01-11T07:11:31.900Z,-2.11
2023-01-11T07:13:58.877Z,-2.15
2023-01-11T07:16:26.301Z,-2.19
2023-01-11T07:18:54.119Z,-2.09
2023-01-11T07:21:22.213Z,-2.12
2023-01-11T07:23:59.184Z,-2.11
2023-01-11T07:26:28.003Z,-2.22
2023-01-11T07:28:55.677Z,-2.30
2023-01-11T07:31:23.062Z,-2.42
2023-01-11T07:33:50.225Z,-2.26
2023-01-11T07:36:17.953Z,-2.41
2023-01-11T07:38:47.249Z,-2.34
2023-01-11T07:41:14.624Z,-2.49
2023-01-11T07:43:43.755Z,-2.31
2023-01-11T07:46:11.265Z,-2.36
2023-01-11T07:48:39.030Z,-2.26
2023-01-11T07:51:06.278Z,-2.37
2023-01-11T07:53:34.006Z,-2.38
2023-01-11T07:56:01.626Z,-2.44
2023-01-11T07:58:29.079Z,-2.37
2023-01-11T08:00:59.583Z,-2.55
2023-01-11T08:03:27.152Z,-2.61
2023-01-11T08:05:55.574Z,-2.62
2023-01-11T08:08:23.099Z,-2.53
2023-01-11T08:10:51.267Z,-2.51
2023-01-11T08:13:19.228Z,-2.27
2023-01-11T08:15:46.733Z,-2.13
2023-01-11T08:18:16.238Z,-2.00
2023-01-11T08:20:43.927Z,-1.68
2023-01-11T08:23:11.674Z,-1.51
2023-01-11T08:25:39.840Z,-1.38
2023-01-11T08:28:08.267Z,-1.20
2023-01-11T08:30:36.036Z,-1.04
2023-01-11T08:33:07.379Z,-0.89
2023-01-11T08:35:40.047Z,-0.73
2023-01-11T08:38:07.846Z,-0.63
2023-01-11T08:40:34.881Z,-0.52
2023-01-11T08:43:02.306Z,-0.45
2023-01-11T08:45:29.823Z,-0.45
2023-01-11T08:47:59.908Z,-0.36
2023-01-11T08:50:27.717Z,-0.28
2023-01-11T08:52:56.492Z,-0.11
2023-01-11T08:55:23.873Z,0.06
2023-01-11T08:57:54.220Z,0.24
2023-01-11T09:00:22.008Z,0.40
2023-01-11T09:02:49.712Z,0.58
2023-01-11T09:05:18.383Z,0.71
2023-01-11T09:07:46.161Z,0.81
2023-01-11T09:10:15.370Z,0.93
2023-01-11T09:12:43.685Z,1.00
2023-01-11T09:15:14.699Z,1.09
2023-01-11T09:17:46.784Z,1.17
2023-01-11T09:20:15.115Z,1.25
2023-01-11T09:22:46.800Z,1.33
2023-01-11T09:25:16.304Z,1.31
2023-01-11T09:27:43.856Z,1.37
2023-01-11T09:30:13.465Z,1.49
2023-01-11T09:32:41.460Z,1.64
2023-01-11T09:35:10.164Z,1.74
2023-01-11T09:37:38.478Z,1.80
2023-01-11T09:40:08.235Z,1.92
2023-01-11T09:42:42.555Z,2.06
2023-01-11T09:45:18.591Z,2.12
2023-01-11T09:47:51.890Z,2.26
2023-01-11T09:50:23.684Z,2.21
2023-01-11T09:52:57.013Z,2.31
2023-01-11T09:55:33.234Z,2.31
2023-01-11T09:58:24.668Z,2.36
2023-01-11T10:01:01.359Z,2.51
2023-01-11T10:03:59.473Z,2.62
2023-01-11T10:06:33.499Z,2.73
2023-01-11T10:18:32.759Z,2.88
2023-01-11T10:18:49.353Z,2.91
2023-01-11T10:21:24.466Z,2.89
2023-01-11T10:23:58.653Z,2.85
2023-01-11T10:26:26.923Z,2.81
2023-01-11T10:28:59.898Z,2.84
2023-01-11T10:31:32.660Z,2.86
2023-01-11T10:34:02.433Z,2.96
2023-01-11T10:36:39.353Z,3.07
2023-01-11T10:39:14.109Z,3.22
2023-01-11T10:41:49.720Z,3.31
2023-01-11T10:44:22.067Z,3.40
2023-01-11T10:46:54.040Z,3.52
2023-01-11T10:49:47.871Z,3.52
2023-01-11T10:52:25.868Z,3.57
2023-01-11T10:54:56.351Z,3.60
2023-01-11T10:57:59.368Z,3.58
2023-01-11T11:00:38.945Z,3.56
2023-01-11T11:03:45.323Z,3.57
2023-01-11T11:06:23.871Z,3.09
2023-01-11T11:08:59.983Z,3.22
2023-01-11T11:11:32.659Z,2.95
2023-01-11T11:14:19.622Z,3.13
2023-01-11T11:16:59.619Z,3.20
2023-01-11T11:19:31.956Z,3.26
2023-01-11T11:22:06.139Z,3.26
2023-01-11T11:24:39.190Z,3.27
2023-01-11T11:27:16.984Z,3.27
2023-01-11T11:29:53.115Z,3.27
2023-01-11T11:32:26.374Z,3.24
2023-01-11T11:34:54.970Z,3.20
2023-01-11T11:37:32.024Z,3.20
2023-01-11T11:39:59.729Z,3.03
2023-01-11T11:42:28.171Z,3.02
2023-01-11T11:45:16.248Z,3.13
2023-01-11T11:47:52.833Z,3.21
2023-01-11T11:50:43.072Z,3.24
2023-01-11T11:53:24.152Z,3.23
2023-01-11T11:55:52.781Z,3.23
2023-01-11T11:58:24.168Z,3.26
2023-01-11T12:00:53.364Z,3.26
2023-01-11T12:03:28.371Z,3.26
2023-01-11T12:05:59.817Z,3.14
2023-01-11T12:08:31.825Z,3.13
2023-01-11T12:11:01.940Z,3.12
2023-01-11T12:13:34.835Z,3.20
2023-01-11T12:16:04.561Z,3.25
2023-01-11T12:18:38.770Z,3.30
2023-01-11T12:21:17.429Z,3.24
2023-01-11T12:23:47.186Z,3.23
2023-01-11T12:26:23.571Z,3.28
2023-01-11T12:29:09.987Z,3.32
2023-01-11T12:31:49.114Z,3.37
2023-01-11T12:34:31.499Z,3.40
2023-01-11T12:37:09.691Z,3.46
2023-01-11T12:39:47.227Z,3.55
2023-01-11T12:42:46.898Z,3.63
2023-01-11T12:45:26.636Z,3.71
2023-01-11T12:48:20.995Z,3.55
2023-01-11T12:51:03.240Z,3.59
2023-01-11T12:53:42.101Z,3.59
2023-01-11T12:56:36.280Z,3.68
2023-01-11T12:59:18.612Z,3.82
2023-01-11T13:01:55.847Z,3.85
2023-01-11T13:04:58.619Z,3.95
2023-01-11T13:07:51.345Z,4.01
2023-01-11T13:10:33.454Z,4.11
2023-01-11T13:13:12.347Z,4.20
2023-01-11T13:15:49.535Z,4.26
2023-01-11T13:18:30.228Z,4.28
2023-01-11T13:21:06.792Z,4.23
2023-01-11T13:23:42.250Z,4.12
2023-01-11T13:26:22.043Z,3.97
2023-01-11T13:28:57.186Z,3.86
2023-01-11T13:31:24.989Z,3.76
2023-01-11T13:34:00.958Z,3.71
2023-01-11T13:36:33.616Z,3.64
2023-01-11T13:39:07.640Z,3.58
2023-01-11T13:41:38.358Z,3.51
2023-01-11T13:44:13.484Z,3.43
2023-01-11T13:46:52.146Z,3.33
2023-01-11T13:49:34.947Z,3.25
2023-01-11T13:52:11.919Z,3.08
2023-01-11T13:54:48.108Z,3.04
2023-01-11T13:57:23.450Z,2.92
2023-01-11T13:59:58.296Z,2.87
2023-01-11T14:02:38.032Z,2.81
2023-01-11T14:05:13.631Z,2.72
2023-01-11T14:07:53.711Z,2.69
2023-01-11T14:10:35.899Z,2.65
2023-01-11T14:13:29.883Z,2.59
2023-01-11T14:16:07.645Z,2.51
2023-01-11T14:18:43.865Z,2.43
2023-01-11T14:21:18.885Z,2.34
2023-01-11T14:23:50.304Z,2.28
2023-01-11T14:26:55.526Z,2.21
2023-01-11T14:30:08.361Z,2.12
2023-01-11T14:33:08.597Z,1.78
2023-01-11T14:35:55.454Z,1.78
2023-01-11T14:38:55.342Z,1.69
2023-01-11T14:41:53.014Z,1.40
2023-01-11T14:44:32.952Z,1.41
2023-01-11T14:47:28.055Z,1.35
2023-01-11T14:50:11.822Z,1.30
2023-01-11T14:52:40.996Z,1.22
2023-01-11T14:55:17.281Z,1.12
2023-01-11T14:58:02.284Z,0.99
2023-01-11T15:01:11.570Z,0.83
2023-01-11T15:03:49.698Z,0.79
2023-01-11T15:06:20.212Z,0.50
2023-01-11T15:08:51.167Z,0.71
2023-01-11T15:11:39.896Z,0.57
2023-01-11T15:14:28.565Z,0.59
2023-01-11T15:17:00.944Z,0.53
2023-01-11T15:19:33.876Z,0.26
2023-01-11T15:22:06.215Z,0.16
2023-01-11T15:24:38.803Z,0.20
2023-01-11T15:27:23.292Z,-0.26
2023-01-11T15:29:56.497Z,-0.29
2023-01-11T15:32:30.689Z,-0.13
2023-01-11T15:35:32.822Z,-0.11
2023-01-11T15:38:11.895Z,-0.03
2023-01-11T15:40:43.044Z,-0.08
2023-01-11T15:43:57.622Z,-0.12
2023-01-11T15:46:57.355Z,-0.52
2023-01-11T15:49:54.876Z,-0.55
2023-01-11T15:53:10.659Z,-0.69
2023-01-11T15:56:10.916Z,-0.75
2023-01-11T15:59:04.611Z,-0.65
2023-01-11T16:01:50.087Z,-0.48
2023-01-11T16:04:29.513Z,-0.52
2023-01-11T16:07:03.872Z,-0.54
2023-01-11T16:09:53.277Z,-0.72
2023-01-11T16:12:41.393Z,-0.72
2023-01-11T16:15:27.968Z,-0.64
2023-01-11T16:18:02.157Z,-0.60
2023-01-11T16:20:30.186Z,-0.64
2023-01-11T16:23:06.807Z,-0.72
2023-01-11T16:25:38.755Z,-0.75
2023-01-11T16:28:07.761Z,-0.84
2023-01-11T16:30:36.809Z,-0.88
2023-01-11T16:33:20.785Z,-0.85
2023-01-11T16:36:02.773Z,-0.82
2023-01-11T16:38:40.557Z,-0.80
2023-01-11T16:41:10.220Z,-0.75
2023-01-11T16:43:45.624Z,-0.80
2023-01-11T16:46:42.650Z,-0.91
2023-01-11T16:49:17.161Z,-0.96
2023-01-11T16:51:49.346Z,-0.92
2023-01-11T16:54:25.602Z,-0.89
2023-01-11T16:56:54.614Z,-0.93
2023-01-11T16:59:25.699Z,-0.96
2023-01-11T17:01:56.775Z,-0.99
2023-01-11T17:04:27.709Z,-1.00
2023-01-11T17:06:58.415Z,-0.99
2023-01-11T17:09:26.141Z,-0.96
2023-01-11T17:11:53.453Z,-0.98
2023-01-11T17:14:45.669Z,-0.99
2023-01-11T17:17:14.283Z,-0.99
2023-01-11T17:19:45.608Z,-1.04
2023-01-11T17:22:21.898Z,-1.07
2023-01-11T17:24:52.607Z,-1.20
2023-01-11T17:27:22.680Z,-1.02
2023-01-11T17:29:53.726Z,-0.96
2023-01-11T17:32:26.971Z,-0.89
2023-01-11T17:34:54.588Z,-0.83
2023-01-11T17:37:22.241Z,-0.75
2023-01-11T17:39:52.117Z,-0.71
2023-01-11T17:42:19.840Z,-0.77
2023-01-11T17:44:48.712Z,-0.78
2023-01-11T17:47:15.664Z,-0.81
2023-01-11T17:49:43.992Z,-0.76
2023-01-11T17:52:16.842Z,-0.79
2023-01-11T17:54:43.736Z,-0.88
2023-01-11T17:57:11.058Z,-0.72
2023-01-11T17:59:37.807Z,-0.59
2023-01-11T18:02:12.138Z,-0.52
2023-01-11T18:04:39.300Z,-0.47
2023-01-11T18:07:15.222Z,-0.56
2023-01-11T18:09:45.547Z,-0.74
2023-01-11T18:12:16.314Z,-0.93
2023-01-11T18:14:50.344Z,-1.00
2023-01-11T18:17:32.404Z,-1.02
2023-01-11T18:20:00.135Z,-0.94
2023-01-11T18:22:33.154Z,-0.75
2023-01-11T18:25:01.280Z,-0.61
2023-01-11T18:27:30.555Z,-0.56
2023-01-11T18:30:00.160Z,-0.54
2023-01-11T18:32:33.969Z,-0.64
2023-01-11T18:35:01.247Z,-0.79
2023-01-11T18:37:28.332Z,-0.90
2023-01-11T18:39:58.302Z,-0.97
2023-01-11T18:42:29.437Z,-0.91
2023-01-11T18:44:56.317Z,-0.97
2023-01-11T18:47:24.909Z,-0.77
2023-01-11T18:49:52.839Z,-0.59
2023-01-11T18:52:22.003Z,-0.56
2023-01-11T18:54:48.820Z,-0.63
2023-01-11T18:57:17.207Z,-0.43
2023-01-11T18:59:47.193Z,-0.38
2023-01-11T19:02:21.847Z,-0.35
2023-01-11T19:04:49.621Z,-0.44
2023-01-11T19:07:16.876Z,-0.50
2023-01-11T19:09:44.072Z,-0.43
2023-01-11T19:12:11.115Z,-0.34
2023-01-11T19:14:39.608Z,-0.30
2023-01-11T19:17:07.569Z,-0.28
2023-01-11T19:19:34.810Z,-0.23
2023-01-11T19:22:01.998Z,-0.22
2023-01-11T19:24:28.932Z,-0.21
2023-01-11T19:26:56.034Z,-0.37
2023-01-11T19:29:22.830Z,-0.52
2023-01-11T19:31:52.479Z,-0.59
2023-01-11T19:34:19.647Z,-0.54
2023-01-11T19:36:46.681Z,-0.51
2023-01-11T19:39:13.592Z,-0.50
2023-01-11T19:41:40.436Z,-0.45
2023-01-11T19:44:07.290Z,-0.36
2023-01-11T19:46:34.190Z,-0.44
2023-01-11T19:49:02.499Z,-0.28
2023-01-11T19:51:29.325Z,-0.23
2023-01-11T19:53:56.504Z,-0.26
2023-01-11T19:56:23.264Z,-0.18
2023-01-11T19:58:50.118Z,-0.23
2023-01-11T20:01:17.268Z,-0.15
2023-01-11T20:03:44.049Z,-0.10
2023-01-11T20:06:12.575Z,-0.15
2023-01-11T20:08:40.107Z,-0.29
2023-01-11T20:11:08.498Z,-0.17
2023-01-11T20:13:35.376Z,-0.23
2023-01-11T20:16:05.365Z,-0.08
2023-01-11T20:18:32.833Z,0.10
2023-01-11T20:21:00.008Z,0.05
2023-01-11T20:23:30.113Z,-0.04
2023-01-11T20:26:00.915Z,-0.01
2023-01-11T20:28:27.874Z,0.02
2023-01-11T20:30:54.900Z,-0.00
2023-01-11T20:33:21.760Z,0.01
2023-01-11T20:35:48.600Z,0.11
2023-01-11T20:38:15.391Z,0.30
2023-01-11T20:40:43.714Z,0.37
2023-01-11T20:43:10.555Z,0.42
2023-01-11T20:45:37.434Z,0.49
2023-01-11T20:48:04.360Z,0.54
2023-01-11T20:50:31.239Z,0.54
2023-01-11T20:52:57.995Z,0.38
2023-01-11T20:55:24.827Z,0.41
2023-01-11T20:57:53.225Z,0.39
2023-01-11T21:00:21.017Z,0.28
2023-01-11T21:02:48.726Z,0.22
2023-01-11T21:05:15.974Z,0.20
2023-01-11T21:07:42.780Z,0.14
2023-01-11T21:10:10.701Z,0.12
2023-01-11T21:15:05.675Z,0.16
2023-01-11T21:17:32.453Z,0.12
2023-01-11T21:19:59.190Z,0.19
2023-01-11T21:22:25.891Z,0.26
2023-01-11T21:24:52.700Z,0.13
2023-01-11T21:27:19.441Z,0.21
2023-01-11T21:29:46.282Z,0.13
2023-01-11T21:32:14.395Z,0.08
2023-01-11T21:34:41.313Z,0.07
2023-01-11T21:37:08.135Z,0.08
2023-01-11T21:39:34.896Z,0.03
2023-01-11T21:42:01.697Z,-0.04
2023-01-11T21:44:30.123Z,0.04
2023-01-11T21:46:57.151Z,-0.09
2023-01-11T21:49:25.452Z,-0.10
2023-01-11T21:51:52.698Z,-0.24
2023-01-11T21:54:19.790Z,-0.25
2023-01-11T21:56:47.159Z,-0.14
2023-01-11T21:59:14.451Z,-0.21
2023-01-11T22:01:43.595Z,-0.14
2023-01-11T22:04:12.036Z,-0.16
2023-01-11T22:06:42.085Z,-0.24
2023-01-11T22:09:10.504Z,-0.32
2023-01-11T22:11:37.641Z,-0.38
2023-01-11T22:14:05.133Z,-0.57
2023-01-11T22:16:33.112Z,-0.52
2023-01-11T22:19:01.094Z,-0.49
2023-01-11T22:21:28.462Z,-0.51
2023-01-11T22:23:58.436Z,-0.52
2023-01-11T22:26:26.397Z,-0.43
2023-01-11T22:28:54.726Z,-0.45
2023-01-11T22:31:21.906Z,-0.42
2023-01-11T22:33:48.915Z,-0.52
2023-01-11T22:36:15.847Z,-0.50
2023-01-11T22:38:43.065Z,-0.42
2023-01-11T22:41:11.280Z,-0.50
2023-01-11T22:43:38.073Z,-0.48
2023-01-11T22:46:05.209Z,-0.45
2023-01-11T22:48:32.041Z,-0.43
2023-01-11T22:50:58.967Z,-0.58
2023-01-11T22:53:25.781Z,-0.56
2023-01-11T22:55:52.712Z,-0.55
2023-01-11T22:58:20.931Z,-0.41
2023-01-11T23:00:48.560Z,-0.31
2023-01-11T23:03:15.540Z,-0.24
2023-01-11T23:05:44.856Z,-0.34
2023-01-11T23:08:12.377Z,-0.22
2023-01-11T23:10:39.314Z,-0.21
2023-01-11T23:14:02.828Z,-0.23
2023-01-11T23:16:49.926Z,-0.24
2023-01-11T23:22:54.178Z,-0.43
2023-01-11T23:32:40.704Z,-0.42
2023-01-11T23:35:52.741Z,-0.41
2023-01-11T23:38:48.917Z,-0.59
2023-01-11T23:41:29.176Z,-0.65
2023-01-11T23:47:39.635Z,-0.63
2023-01-11T23:54:24.471Z,-0.58
2023-01-11T23:57:45.409Z,-0.60
